Time;durP1;ratioP1;P1;durP2;ratioP2;P2;SDS_P1;SDS_P2;PMS_P1;PMS_P2;Temp;Humidity;BMP_temperature;BMP_pressure;BME280_temperature;BME280_humidity;BME280_pressure;Samples;Min_cycle;Max_cycle;Signal;HPM_P1;HPM_P2
2023/09/21 00:00:33;;;;;;;0.40;0.40;;;;;;;16.71;68.79;96754.50;5065036;28;20053;-70
2023/09/21 00:03:00;;;;;;;0.40;0.40;;;;;;;16.51;70.05;96749.66;5072202;28;20041;-69
2023/09/21 00:05:30;;;;;;;0.47;0.47;;;;;;;16.60;69.51;96757.31;5060832;28;20120;-70
2023/09/21 00:07:58;;;;;;;0.50;0.50;;;;;;;16.65;69.14;96754.69;5058332;28;20049;-69
2023/09/21 00:10:32;;;;;;;0.40;0.40;;;;;;;16.57;69.63;96742.47;5056041;28;20033;-69
2023/09/21 00:13:01;;;;;;;0.50;0.50;;;;;;;16.52;69.63;96742.41;5071027;28;20059;-69
2023/09/21 00:15:29;;;;;;;0.40;0.40;;;;;;;16.47;70.10;96736.97;5064006;28;20044;-70
2023/09/21 00:17:57;;;;;;;0.47;0.47;;;;;;;16.59;69.66;96736.84;5064791;28;20041;-69
2023/09/21 00:20:28;;;;;;;0.30;0.30;;;;;;;16.58;69.72;96730.63;5069050;28;20041;-70
2023/09/21 00:22:55;;;;;;;0.35;0.35;;;;;;;16.58;69.59;96721.72;5069723;28;20036;-70
2023/09/21 00:25:23;;;;;;;0.73;0.73;;;;;;;16.56;70.12;96719.28;5068308;28;20060;-70
2023/09/21 00:27:51;;;;;;;0.47;0.47;;;;;;;16.50;70.16;96718.44;5067198;28;20543;-70
2023/09/21 00:30:20;;;;;;;0.63;0.63;;;;;;;16.49;70.08;96724.06;5069005;28;20418;-70
2023/09/21 00:32:48;;;;;;;0.40;0.40;;;;;;;16.43;70.32;96712.41;5068064;28;20033;-70
2023/09/21 00:35:18;;;;;;;0.45;0.45;;;;;;;16.46;70.15;96717.31;5047392;28;20052;-70
2023/09/21 00:37:46;;;;;;;0.40;0.40;;;;;;;16.48;70.28;96720.56;5073651;28;20117;-70
2023/09/21 00:40:21;;;;;;;0.40;0.40;;;;;;;16.52;70.18;96718.16;5072319;28;20040;-70
2023/09/21 00:42:51;;;;;;;0.40;0.40;;;;;;;16.51;70.15;96716.53;5053869;28;20056;-70
2023/09/21 00:45:21;;;;;;;0.50;0.50;;;;;;;16.56;69.84;96713.06;5063339;28;20049;-71
2023/09/21 00:47:51;;;;;;;0.52;0.52;;;;;;;16.58;69.93;96716.34;5064836;28;20044;-70
2023/09/21 00:50:22;;;;;;;0.10;0.10;;;;;;;16.60;69.89;96700.75;5065030;28;20673;-71
2023/09/21 00:52:52;;;;;;;0.40;0.40;;;;;;;16.63;70.02;96701.06;5064173;28;20037;-71
2023/09/21 00:55:23;;;;;;;0.40;0.40;;;;;;;16.53;69.96;96704.44;5061254;28;20049;-70
2023/09/21 00:57:55;;;;;;;0.40;0.40;;;;;;;16.57;69.94;96701.25;5063740;28;20071;-70
2023/09/21 01:00:26;;;;;;;0.40;0.40;;;;;;;16.51;70.10;96698.47;5055466;28;20166;-70
2023/09/21 01:02:54;;;;;;;0.30;0.30;;;;;;;16.52;69.92;96697.41;5067439;28;20051;-70
2023/09/21 01:05:23;;;;;;;0.35;0.35;;;;;;;16.52;70.00;96694.72;5067517;28;20040;-70
2023/09/21 01:07:51;;;;;;;0.40;0.40;;;;;;;16.59;69.68;96696.41;5071749;28;20041;-70
2023/09/21 01:10:21;;;;;;;0.30;0.30;;;;;;;16.72;69.49;96701.41;5074659;28;20108;-70
2023/09/21 01:12:51;;;;;;;0.40;0.40;;;;;;;16.55;69.89;96690.72;5076597;28;20064;-70
2023/09/21 01:15:20;;;;;;;0.30;0.30;;;;;;;16.59;69.63;96696.41;5060929;28;20102;-70
2023/09/21 01:17:49;;;;;;;0.43;0.43;;;;;;;16.56;69.83;96695.03;5059853;28;20058;-70
2023/09/21 01:20:22;;;;;;;0.85;0.85;;;;;;;16.47;70.17;96683.91;5068629;28;20059;-70
2023/09/21 01:22:57;;;;;;;0.52;0.52;;;;;;;16.44;70.07;96683.59;5068909;28;20040;-70
2023/09/21 01:25:27;;;;;;;0.52;0.52;;;;;;;16.53;70.39;96682.88;5067139;28;20041;-70
2023/09/21 01:27:55;;;;;;;0.50;0.50;;;;;;;16.58;69.68;96684.81;5054543;28;20048;-70
2023/09/21 01:30:23;;;;;;;0.45;0.45;;;;;;;16.66;69.49;96680.88;5055114;28;20047;-70
2023/09/21 01:32:52;;;;;;;0.47;0.47;;;;;;;16.56;69.83;96676.19;5054350;28;20052;-70
2023/09/21 01:35:23;;;;;;;0.65;0.65;;;;;;;16.40;70.17;96677.09;5066483;28;20093;-70
2023/09/21 01:37:50;;;;;;;0.47;0.47;;;;;;;16.37;70.17;96670.34;5055725;28;20041;-70
2023/09/21 01:40:19;;;;;;;0.50;0.50;;;;;;;16.36;70.19;96668.72;5077112;28;20033;-70
2023/09/21 01:42:48;;;;;;;0.50;0.50;;;;;;;16.38;70.20;96669.28;5047466;28;20049;-70
2023/09/21 01:45:17;;;;;;;0.50;0.50;;;;;;;16.36;70.21;96667.91;5049706;28;20048;-70
2023/09/21 01:47:46;;;;;;;0.10;0.10;;;;;;;16.32;70.50;96662.19;5048850;28;20461;-70
2023/09/21 01:50:15;;;;;;;0.43;0.43;;;;;;;16.33;70.40;96665.69;5065500;28;20036;-70
2023/09/21 01:52:43;;;;;;;0.50;0.50;;;;;;;16.39;70.04;96660.13;5069711;28;20036;-70
2023/09/21 01:55:11;;;;;;;0.38;0.38;;;;;;;16.30;70.47;96660.84;5071638;28;20041;-70
2023/09/21 01:57:39;;;;;;;0.10;0.10;;;;;;;16.21;70.74;96657.78;5072103;28;20445;-70
2023/09/21 02:00:21;;;;;;;0.50;0.50;;;;;;;16.20;70.53;96664.22;5053226;28;20586;-70
2023/09/21 02:02:49;;;;;;;0.40;0.40;;;;;;;16.14;70.92;96659.84;5067213;28;20040;-71
2023/09/21 02:05:17;;;;;;;0.70;0.70;;;;;;;16.24;70.78;96648.38;5068149;28;20049;-71
2023/09/21 02:07:45;;;;;;;0.30;0.30;;;;;;;16.16;71.02;96649.66;5071818;28;20047;-70
2023/09/21 02:10:15;;;;;;;0.60;0.60;;;;;;;16.20;70.97;96642.69;5051294;28;20319;-69
2023/09/21 02:12:54;;;;;;;0.50;0.50;;;;;;;16.22;70.97;96642.44;5069544;28;20043;-70
2023/09/21 02:15:24;;;;;;;0.60;0.60;;;;;;;16.10;71.45;96638.00;5060857;28;20055;-70
2023/09/21 02:17:54;;;;;;;0.50;0.50;;;;;;;16.18;71.32;96635.94;5046198;28;20080;-70
2023/09/21 02:20:22;;;;;;;0.40;0.40;;;;;;;16.23;71.08;96633.28;5037167;28;20049;-71
2023/09/21 02:22:51;;;;;;;0.10;0.10;;;;;;;16.28;70.77;96625.28;5069731;28;20410;-70
2023/09/21 02:25:22;;;;;;;0.40;0.38;;;;;;;16.31;70.71;96630.13;5065925;28;20040;-71
2023/09/21 02:27:49;;;;;;;0.38;0.38;;;;;;;16.24;70.77;96627.66;5053576;28;20073;-70
2023/09/21 02:30:20;;;;;;;0.40;0.40;;;;;;;16.19;71.13;96622.22;5071057;28;20040;-70
2023/09/21 02:32:51;;;;;;;0.40;0.40;;;;;;;16.21;71.08;96617.38;5051847;28;20094;-70
2023/09/21 02:35:22;;;;;;;0.45;0.45;;;;;;;16.31;70.67;96620.16;5051100;28;20135;-70
2023/09/21 02:37:51;;;;;;;0.47;0.47;;;;;;;16.18;71.20;96617.09;5078529;28;20064;-70
2023/09/21 02:40:20;;;;;;;0.40;0.40;;;;;;;16.09;71.24;96614.06;5062897;28;20123;-71
2023/09/21 02:42:49;;;;;;;0.40;0.40;;;;;;;16.17;71.17;96610.06;5068702;28;20120;-71
2023/09/21 02:45:20;;;;;;;0.50;0.50;;;;;;;16.09;71.34;96622.13;5065744;28;20043;-70
2023/09/21 02:47:51;;;;;;;0.40;0.40;;;;;;;16.00;71.83;96626.31;5051122;28;20117;-70
2023/09/21 02:50:22;;;;;;;0.40;0.40;;;;;;;15.94;71.94;96628.16;5047001;28;20123;-70
2023/09/21 02:52:54;;;;;;;0.43;0.43;;;;;;;16.03;71.59;96612.34;5047522;28;20087;-70
2023/09/21 02:55:24;;;;;;;0.30;0.30;;;;;;;15.95;72.38;96621.69;5061024;28;20094;-70
2023/09/21 02:57:55;;;;;;;0.40;0.40;;;;;;;15.93;72.22;96618.44;5051361;28;20036;-70
2023/09/21 03:00:27;;;;;;;0.63;0.63;;;;;;;15.89;72.58;96622.69;5064429;28;20029;-70
2023/09/21 03:02:59;;;;;;;0.40;0.40;;;;;;;15.87;72.53;96619.47;5053293;28;20033;-70
2023/09/21 03:05:28;;;;;;;0.40;0.40;;;;;;;16.06;71.91;96615.34;5046499;28;20044;-70
2023/09/21 03:07:56;;;;;;;0.50;0.50;;;;;;;15.94;72.35;96625.44;5070496;28;20045;-70
2023/09/21 03:10:25;;;;;;;0.50;0.50;;;;;;;15.93;72.38;96621.13;5051394;28;20032;-70
2023/09/21 03:12:53;;;;;;;0.15;0.15;;;;;;;15.89;72.50;96611.09;5054036;28;20403;-70
2023/09/21 03:15:22;;;;;;;0.60;0.60;;;;;;;15.94;72.18;96603.91;5051761;28;20040;-70
2023/09/21 03:17:53;;;;;;;0.40;0.40;;;;;;;15.93;72.18;96606.88;5050021;28;20127;-70
2023/09/21 03:20:28;;;;;;;0.47;0.47;;;;;;;15.95;71.57;96599.34;5059224;28;20042;-69
2023/09/21 03:22:57;;;;;;;0.50;0.50;;;;;;;15.97;71.52;96600.72;5046788;28;20094;-69
2023/09/21 03:25:32;;;;;;;0.52;0.52;;;;;;;15.76;72.14;96598.88;5048258;28;20504;-71
2023/09/21 03:28:01;;;;;;;0.50;0.50;;;;;;;15.99;71.52;96595.06;5046271;28;20051;-72
2023/09/21 03:30:28;;;;;;;0.50;0.50;;;;;;;15.86;71.66;96590.09;5070308;28;20051;-71
2023/09/21 03:32:56;;;;;;;0.45;0.45;;;;;;;15.68;72.97;96588.53;5053128;28;20064;-71
2023/09/21 03:35:26;;;;;;;0.57;0.57;;;;;;;15.67;72.94;96587.75;5049261;28;20049;-72
2023/09/21 03:37:55;;;;;;;0.47;0.47;;;;;;;15.79;72.04;96574.13;5067718;28;20039;-71
2023/09/21 03:40:25;;;;;;;0.52;0.52;;;;;;;15.57;72.67;96582.25;5061656;28;20116;-71
2023/09/21 03:42:54;;;;;;;0.40;0.40;;;;;;;15.52;72.50;96579.47;5042437;28;20036;-71
2023/09/21 03:45:24;;;;;;;0.50;0.50;;;;;;;15.58;71.91;96572.28;5054554;28;20048;-71
2023/09/21 03:47:52;;;;;;;0.47;0.47;;;;;;;15.35;71.46;96565.28;5056644;28;20128;-71
2023/09/21 03:50:25;;;;;;;0.30;0.30;;;;;;;15.29;73.00;96569.75;5064990;28;20044;-71
2023/09/21 03:52:54;;;;;;;0.60;0.60;;;;;;;15.31;73.73;96564.97;5049412;28;20114;-70
2023/09/21 03:55:22;;;;;;;0.10;0.10;;;;;;;15.29;74.26;96564.38;5070451;28;20406;-71
2023/09/21 03:57:50;;;;;;;0.40;0.40;;;;;;;15.27;74.92;96563.00;5045864;28;20186;-71
2023/09/21 04:00:29;;;;;;;0.60;0.60;;;;;;;15.32;74.63;96563.91;5069047;28;20044;-70
2023/09/21 04:02:59;;;;;;;0.47;0.47;;;;;;;15.26;74.84;96564.09;5051434;28;20048;-71
2023/09/21 04:05:30;;;;;;;0.50;0.50;;;;;;;15.21;74.33;96559.44;5056400;28;20044;-70
2023/09/21 04:07:59;;;;;;;0.40;0.40;;;;;;;15.21;73.95;96564.00;5057437;28;20139;-71
2023/09/21 04:10:30;;;;;;;0.73;0.73;;;;;;;15.35;73.57;96563.41;5054763;28;20048;-70
2023/09/21 04:12:58;;;;;;;0.40;0.40;;;;;;;15.22;74.50;96554.88;5056692;28;20599;-71
2023/09/21 04:15:27;;;;;;;0.10;0.10;;;;;;;15.11;75.03;96547.75;5043941;28;20412;-71
2023/09/21 04:17:56;;;;;;;0.50;0.50;;;;;;;15.14;74.88;96541.88;5067871;28;20033;-71
2023/09/21 04:20:24;;;;;;;0.52;0.52;;;;;;;15.13;75.20;96537.56;5080557;28;20044;-71
2023/09/21 04:22:55;;;;;;;0.77;0.77;;;;;;;15.09;75.44;96542.63;5055443;28;20048;-71
2023/09/21 04:25:24;;;;;;;0.50;0.50;;;;;;;15.07;75.91;96542.88;5074125;28;20123;-71
2023/09/21 04:27:53;;;;;;;0.40;0.40;;;;;;;15.09;75.93;96547.19;5056758;28;20132;-71
2023/09/21 04:30:21;;;;;;;0.40;0.40;;;;;;;15.07;75.77;96540.19;5073921;28;20059;-70
2023/09/21 04:32:50;;;;;;;0.70;0.70;;;;;;;14.99;76.28;96529.88;5052996;28;20037;-71
2023/09/21 04:35:20;;;;;;;0.50;0.50;;;;;;;15.04;75.95;96535.31;5056240;28;20070;-71
2023/09/21 04:37:50;;;;;;;0.50;0.50;;;;;;;15.03;76.03;96535.56;5052421;28;20063;-71
2023/09/21 04:40:19;;;;;;;0.55;0.55;;;;;;;15.02;75.85;96528.56;5078030;28;20044;-70
2023/09/21 04:42:49;;;;;;;0.77;0.77;;;;;;;14.97;76.25;96537.34;5066244;28;20064;-70
2023/09/21 04:45:25;;;;;;;0.40;0.40;;;;;;;15.04;75.76;96524.56;5062407;28;20550;-70
2023/09/21 04:48:00;;;;;;;0.55;0.55;;;;;;;15.00;75.97;96528.81;5048380;28;20059;-71
2023/09/21 04:50:32;;;;;;;0.30;0.30;;;;;;;14.99;76.18;96521.81;5050741;28;20047;-67
2023/09/21 04:53:00;;;;;;;0.40;0.40;;;;;;;14.99;76.27;96519.13;5078518;28;20068;-67
2023/09/21 04:55:27;;;;;;;0.43;0.43;;;;;;;14.97;76.32;96518.53;5055993;28;20076;-67
2023/09/21 04:57:56;;;;;;;0.50;0.50;;;;;;;14.88;76.82;96522.72;5056025;28;20037;-67
2023/09/21 05:00:24;;;;;;;0.32;0.32;;;;;;;14.80;77.22;96511.59;5054151;28;20076;-67
2023/09/21 05:02:52;;;;;;;0.50;0.50;;;;;;;14.82;77.51;96517.53;5073369;28;20475;-67
2023/09/21 05:05:24;;;;;;;0.70;0.70;;;;;;;14.80;77.35;96507.03;5055381;28;20133;-66
2023/09/21 05:07:52;;;;;;;0.40;0.40;;;;;;;14.77;77.41;96510.22;5074090;28;20169;-67
2023/09/21 05:10:20;;;;;;;0.45;0.45;;;;;;;14.78;77.32;96509.16;5073627;28;20053;-67
2023/09/21 05:12:49;;;;;;;0.35;0.35;;;;;;;14.78;77.53;96511.03;5056033;28;20526;-67
2023/09/21 05:15:18;;;;;;;0.68;0.68;;;;;;;14.70;77.95;96498.84;5072921;28;20068;-67
2023/09/21 05:17:46;;;;;;;0.50;0.50;;;;;;;14.71;78.15;96507.72;5073218;28;20036;-67
2023/09/21 05:20:45;;;;;;;0.60;0.60;;;;;;;14.66;78.68;96509.25;5072526;28;20094;-67
2023/09/21 05:23:14;;;;;;;0.10;0.10;;;;;;;14.73;78.22;96509.09;5068120;28;20411;-66
2023/09/21 05:25:42;;;;;;;0.50;0.50;;;;;;;14.75;78.40;96506.97;5061528;28;20051;-67
2023/09/21 05:28:10;;;;;;;0.40;0.40;;;;;;;14.76;78.56;96507.78;5071216;28;20044;-67
2023/09/21 05:30:39;;;;;;;0.40;0.40;;;;;;;14.77;78.33;96509.41;5073977;28;20047;-67
2023/09/21 05:33:07;;;;;;;0.50;0.50;;;;;;;14.74;78.24;96505.34;5073089;28;20043;-67
2023/09/21 05:35:35;;;;;;;0.45;0.45;;;;;;;14.78;78.80;96508.34;5073114;28;20040;-67
2023/09/21 05:38:05;;;;;;;0.55;0.55;;;;;;;14.84;78.81;96504.69;5073064;28;20508;-66
2023/09/21 05:40:33;;;;;;;0.40;0.40;;;;;;;14.80;79.16;96496.28;5073284;28;20041;-65
2023/09/21 05:43:01;;;;;;;0.68;0.68;;;;;;;14.86;78.97;96497.16;5072998;28;20037;-68
2023/09/21 05:45:28;;;;;;;0.57;0.57;;;;;;;14.86;78.99;96495.28;5072967;28;20055;-67
2023/09/21 05:47:57;;;;;;;0.50;0.50;;;;;;;14.90;78.69;96490.25;5072899;28;20037;-67
2023/09/21 05:50:25;;;;;;;0.50;0.50;;;;;;;14.91;78.64;96500.75;5072695;28;20044;-67
2023/09/21 05:52:54;;;;;;;0.50;0.50;;;;;;;14.95;78.38;96493.78;5072775;28;20033;-67
2023/09/21 05:55:22;;;;;;;0.65;0.65;;;;;;;14.95;78.40;96498.38;5072422;28;20123;-67
2023/09/21 05:57:50;;;;;;;0.65;0.65;;;;;;;14.96;78.39;96492.72;5072721;28;20123;-67
2023/09/21 06:00:18;;;;;;;0.40;0.40;;;;;;;15.00;78.28;96491.19;5072214;28;20101;-67
2023/09/21 06:02:46;;;;;;;0.43;0.43;;;;;;;15.06;78.21;96490.16;5072485;28;20094;-68
2023/09/21 06:05:19;;;;;;;0.47;0.47;;;;;;;15.15;77.76;96476.31;5072519;28;20044;-67
2023/09/21 06:07:47;;;;;;;0.45;0.45;;;;;;;15.22;77.64;96483.13;5072862;28;20040;-65
2023/09/21 06:10:14;;;;;;;0.63;0.63;;;;;;;15.23;77.48;96474.00;5072364;28;20119;-65
2023/09/21 06:12:42;;;;;;;0.60;0.60;;;;;;;15.25;77.58;96477.25;5073014;28;20035;-65
2023/09/21 06:15:10;;;;;;;0.70;0.70;;;;;;;15.33;77.41;96478.66;5071856;28;20055;-68
2023/09/21 06:17:39;;;;;;;0.10;0.10;;;;;;;15.39;77.12;96473.09;5063117;28;20443;-65
2023/09/21 06:20:08;;;;;;;0.50;0.50;;;;;;;15.49;76.86;96467.00;5071428;28;20122;-66
2023/09/21 06:22:37;;;;;;;0.55;0.55;;;;;;;15.58;76.68;96470.06;5061988;28;20032;-65
2023/09/21 06:25:06;;;;;;;0.50;0.50;;;;;;;15.60;76.92;96474.13;5062595;28;20043;-68
2023/09/21 06:27:36;;;;;;;0.40;0.40;;;;;;;15.69;76.81;96469.09;5066940;28;20051;-66
2023/09/21 06:30:04;;;;;;;0.38;0.38;;;;;;;15.77;76.53;96466.78;5072101;28;20067;-65
2023/09/21 06:32:32;;;;;;;0.57;0.57;;;;;;;15.88;76.73;96469.56;5067798;28;20048;-65
2023/09/21 06:35:00;;;;;;;0.45;0.45;;;;;;;15.93;76.11;96461.53;5072611;28;20048;-65
2023/09/21 06:37:30;;;;;;;0.50;0.50;;;;;;;16.03;75.39;96462.41;5064950;28;20119;-65
2023/09/21 06:40:00;;;;;;;0.63;0.63;;;;;;;16.09;74.61;96461.38;5072117;28;20048;-65
2023/09/21 06:42:28;;;;;;;0.50;0.50;;;;;;;16.18;74.15;96456.34;5073160;28;20116;-65
2023/09/21 06:44:56;;;;;;;0.60;0.60;;;;;;;16.22;74.38;96454.75;5071844;28;20041;-67
2023/09/21 06:47:28;;;;;;;0.55;0.55;;;;;;;16.29;74.32;96455.38;5069484;28;20063;-65
2023/09/21 06:49:56;;;;;;;0.20;0.10;;;;;;;16.33;74.17;96456.44;5065898;28;20405;-68
2023/09/21 06:52:23;;;;;;;0.50;0.50;;;;;;;16.35;74.24;96458.88;5071335;28;20051;-66
2023/09/21 06:54:52;;;;;;;0.68;0.68;;;;;;;16.34;74.44;96460.78;5069059;28;20051;-66
2023/09/21 06:57:23;;;;;;;0.50;0.50;;;;;;;16.33;74.63;96455.63;5071499;28;20048;-66
2023/09/21 06:59:52;;;;;;;0.47;0.47;;;;;;;16.38;74.55;96453.81;5071491;28;20384;-66
2023/09/21 07:02:22;;;;;;;0.52;0.40;;;;;;;16.37;74.50;96446.78;5071638;28;20048;-65
2023/09/21 07:04:50;;;;;;;0.50;0.50;;;;;;;16.42;74.42;96454.88;5071573;28;20128;-66
2023/09/21 07:07:18;;;;;;;0.50;0.50;;;;;;;16.40;74.43;96454.34;5070978;28;20051;-66
2023/09/21 07:09:46;;;;;;;0.40;0.40;;;;;;;16.49;74.21;96446.59;5071571;28;20060;-65
2023/09/21 07:12:14;;;;;;;0.47;0.47;;;;;;;16.46;74.14;96453.31;5071172;28;20122;-66
2023/09/21 07:14:45;;;;;;;0.40;0.40;;;;;;;16.50;74.13;96440.97;5064848;28;20042;-66
2023/09/21 07:17:14;;;;;;;0.60;0.60;;;;;;;16.55;73.97;96442.84;5062278;28;20037;-65
2023/09/21 07:19:42;;;;;;;0.30;0.30;;;;;;;16.60;73.81;96440.19;5064037;28;20433;-69
2023/09/21 07:22:10;;;;;;;0.60;0.60;;;;;;;16.64;73.92;96441.31;5066713;28;20119;-66
2023/09/21 07:24:40;;;;;;;0.40;0.40;;;;;;;16.69;73.90;96440.53;5063434;28;20037;-66
2023/09/21 07:27:08;;;;;;;0.50;0.50;;;;;;;16.73;73.33;96439.75;5066922;28;20123;-67
2023/09/21 07:29:35;;;;;;;0.50;0.50;;;;;;;16.77;73.61;96443.53;5063543;28;20051;-65
2023/09/21 07:32:05;;;;;;;0.50;0.50;;;;;;;16.83;73.41;96437.09;5053298;28;20044;-66
2023/09/21 07:34:36;;;;;;;0.40;0.40;;;;;;;16.94;73.42;96437.94;5068648;28;20032;-66
2023/09/21 07:37:04;;;;;;;0.47;0.47;;;;;;;17.05;72.89;96436.91;5071481;28;20048;-66
2023/09/21 07:39:33;;;;;;;0.80;0.80;;;;;;;17.12;72.91;96432.09;5071246;28;20075;-65
2023/09/21 07:42:02;;;;;;;0.50;0.50;;;;;;;17.25;72.95;96428.88;5071140;28;20098;-67
2023/09/21 07:44:30;;;;;;;0.40;0.40;;;;;;;17.39;72.23;96439.19;5064748;28;20040;-66
2023/09/21 07:46:59;;;;;;;0.90;0.90;;;;;;;17.46;71.94;96442.44;5070485;28;20040;-67
2023/09/21 07:49:28;;;;;;;0.50;0.50;;;;;;;17.58;71.23;96440.28;5058268;28;20051;-66
2023/09/21 07:51:56;;;;;;;0.55;0.55;;;;;;;17.71;70.78;96442.50;5066324;28;20513;-67
2023/09/21 07:54:24;;;;;;;0.40;0.40;;;;;;;17.83;70.72;96437.66;5070139;28;20113;-67
2023/09/21 07:56:52;;;;;;;0.40;0.40;;;;;;;17.91;70.08;96423.63;5068704;28;20048;-66
2023/09/21 07:59:19;;;;;;;0.50;0.50;;;;;;;17.98;69.23;96423.34;5072154;28;20059;-66
2023/09/21 08:01:48;;;;;;;0.30;0.30;;;;;;;18.08;68.70;96419.84;5072196;28;20115;-67
2023/09/21 08:04:17;;;;;;;0.32;0.32;;;;;;;18.17;68.62;96420.94;5071717;28;20096;-65
2023/09/21 08:06:46;;;;;;;0.40;0.40;;;;;;;18.25;68.39;96428.47;5072481;28;20044;-65
2023/09/21 08:09:14;;;;;;;0.43;0.43;;;;;;;18.39;67.75;96418.72;5072558;28;20407;-65
2023/09/21 08:11:59;;;;;;;0.40;0.40;;;;;;;18.56;67.36;96418.44;5071660;28;20044;-66
2023/09/21 08:14:27;;;;;;;0.30;0.30;;;;;;;18.76;66.45;96428.41;5071998;28;20094;-66
2023/09/21 08:16:55;;;;;;;0.40;0.40;;;;;;;18.93;66.40;96428.88;5071123;28;20032;-66
2023/09/21 08:19:23;;;;;;;0.40;0.40;;;;;;;19.01;65.87;96428.28;5071362;28;20083;-66
2023/09/21 08:21:52;;;;;;;0.47;0.47;;;;;;;19.09;65.69;96422.31;5072513;28;20051;-68
2023/09/21 08:24:20;;;;;;;0.30;0.30;;;;;;;19.20;65.17;96418.50;5071400;28;20040;-67
2023/09/21 08:26:48;;;;;;;0.38;0.38;;;;;;;19.28;65.13;96414.38;5072026;28;20584;-67
2023/09/21 08:29:15;;;;;;;0.30;0.30;;;;;;;19.40;64.92;96420.28;5072038;28;20041;-66
2023/09/21 08:31:44;;;;;;;0.60;0.60;;;;;;;19.45;64.64;96412.09;5071890;28;20048;-67
2023/09/21 08:34:11;;;;;;;0.35;0.35;;;;;;;19.55;63.71;96409.38;5070471;28;20075;-66
2023/09/21 08:36:40;;;;;;;0.30;0.30;;;;;;;19.66;63.35;96412.81;5070520;28;20464;-66
2023/09/21 08:39:09;;;;;;;0.28;0.28;;;;;;;19.73;63.65;96413.28;5070685;28;20052;-67
2023/09/21 08:41:37;;;;;;;0.30;0.30;;;;;;;19.85;62.97;96410.22;5070655;28;20045;-66
2023/09/21 08:44:07;;;;;;;0.55;0.55;;;;;;;19.95;62.34;96413.66;5070851;28;20484;-67
2023/09/21 08:46:36;;;;;;;0.30;0.30;;;;;;;20.08;61.70;96410.31;5067010;28;20515;-67
2023/09/21 08:49:04;;;;;;;0.22;0.22;;;;;;;20.21;61.15;96411.56;5070599;28;20471;-66
2023/09/21 08:51:32;;;;;;;0.47;0.47;;;;;;;20.31;60.13;96414.19;5072888;28;20507;-66
2023/09/21 08:54:00;;;;;;;0.38;0.38;;;;;;;20.39;59.92;96405.47;5065417;28;20037;-66
2023/09/21 08:56:33;;;;;;;0.40;0.40;;;;;;;20.44;59.83;96407.31;5065435;28;20064;-66
2023/09/21 08:59:01;;;;;;;;;;;;;;;20.58;59.08;96400.09;5067333;28;20044;-66
2023/09/21 09:01:28;;;;;;;0.40;0.40;;;;;;;20.69;59.24;96400.81;5073765;28;19924;-66
2023/09/21 09:03:56;;;;;;;0.40;0.40;;;;;;;20.77;58.86;96400.16;5069716;28;20040;-66
2023/09/21 09:06:24;;;;;;;0.30;0.30;;;;;;;20.84;57.90;96411.50;5073780;28;20048;-67
2023/09/21 09:08:52;;;;;;;0.32;0.32;;;;;;;20.88;55.96;96397.03;5073749;28;20607;-66
2023/09/21 09:11:35;;;;;;;0.35;0.22;;;;;;;20.96;56.09;96387.47;5072565;28;20041;-67
2023/09/21 09:14:03;;;;;;;0.47;0.47;;;;;;;21.00;56.62;96399.34;5073203;28;20033;-66
2023/09/21 09:16:33;;;;;;;0.43;0.43;;;;;;;21.09;56.12;96396.78;5072462;28;20040;-66
2023/09/21 09:19:05;;;;;;;0.35;0.35;;;;;;;21.16;56.39;96389.13;5073742;28;20044;-66
2023/09/21 09:21:33;;;;;;;0.25;0.25;;;;;;;21.17;55.96;96388.81;5073958;28;20115;-66
2023/09/21 09:24:02;;;;;;;0.38;0.38;;;;;;;21.16;55.57;96389.13;5073526;28;20115;-67
2023/09/21 09:26:30;;;;;;;0.30;0.30;;;;;;;21.14;54.69;96392.13;5073165;28;20036;-66
2023/09/21 09:29:06;;;;;;;0.30;0.30;;;;;;;21.13;53.77;96381.53;5073285;28;20043;-66
2023/09/21 09:31:35;;;;;;;0.40;0.40;;;;;;;21.18;54.20;96384.22;5072631;28;20080;-67
2023/09/21 09:34:04;;;;;;;0.20;0.20;;;;;;;21.19;54.37;96383.91;5064654;28;20484;-66
2023/09/21 09:36:33;;;;;;;0.43;0.43;;;;;;;21.22;55.27;96379.81;5072589;28;20033;-67
2023/09/21 09:39:01;;;;;;;0.25;0.25;;;;;;;21.30;55.26;96383.78;5073246;28;20044;-67
2023/09/21 09:41:30;;;;;;;0.52;0.52;;;;;;;21.38;55.18;96373.09;5066545;28;20407;-66
2023/09/21 09:43:59;;;;;;;0.32;0.32;;;;;;;21.47;55.43;96376.75;5072930;28;20068;-66
2023/09/21 09:46:30;;;;;;;0.38;0.38;;;;;;;21.49;55.46;96371.81;5073000;28;20050;-67
2023/09/21 09:49:01;;;;;;;0.30;0.30;;;;;;;21.59;54.53;96368.94;5055129;28;20049;-67
2023/09/21 09:51:37;;;;;;;0.30;0.30;;;;;;;21.63;54.60;96360.22;5072963;28;20071;-67
2023/09/21 09:54:05;;;;;;;0.40;0.40;;;;;;;21.70;54.49;96363.38;5056675;28;20076;-67
2023/09/21 09:56:34;;;;;;;0.30;0.30;;;;;;;21.72;54.76;96359.25;5068064;28;20048;-67
2023/09/21 09:59:03;;;;;;;0.30;0.30;;;;;;;21.77;54.94;96358.38;5072902;28;20041;-67
2023/09/21 10:01:33;;;;;;;0.28;0.28;;;;;;;21.86;54.88;96354.69;5054462;28;20044;-67
2023/09/21 10:04:01;;;;;;;0.25;0.25;;;;;;;21.99;54.28;96365.94;5069006;28;20032;-67
2023/09/21 10:06:29;;;;;;;0.25;0.25;;;;;;;22.05;54.82;96370.16;5055482;28;20045;-67
2023/09/21 10:08:58;;;;;;;0.38;0.38;;;;;;;22.03;54.51;96373.19;5073515;28;20070;-67
2023/09/21 10:11:27;;;;;;;0.22;0.22;;;;;;;22.05;55.19;96360.09;5072851;28;20119;-65
2023/09/21 10:13:56;;;;;;;0.40;0.40;;;;;;;22.10;54.55;96360.03;5072614;28;20127;-65
2023/09/21 10:16:26;;;;;;;0.38;0.38;;;;;;;22.13;55.43;96351.25;5072705;28;20512;-65
2023/09/21 10:19:00;;;;;;;0.40;0.40;;;;;;;22.13;54.69;96351.25;5071946;28;20093;-68
2023/09/21 10:21:31;;;;;;;0.50;0.50;;;;;;;22.14;54.90;96343.91;5063286;28;20504;-67
2023/09/21 10:24:03;;;;;;;0.40;0.40;;;;;;;22.11;55.11;96345.34;5068755;28;20048;-67
2023/09/21 10:26:34;;;;;;;0.40;0.40;;;;;;;22.09;55.08;96344.81;5072453;28;20050;-67
2023/09/21 10:29:04;;;;;;;0.20;0.20;;;;;;;22.21;55.25;96337.00;5071847;28;20033;-65
2023/09/21 10:31:33;;;;;;;0.30;0.30;;;;;;;22.37;55.04;96342.94;5072367;28;20123;-65
2023/09/21 10:34:10;;;;;;;0.30;0.30;;;;;;;22.45;54.92;96349.59;5072290;28;20041;-67
2023/09/21 10:36:43;;;;;;;0.28;0.28;;;;;;;22.40;54.93;96334.19;5073572;28;20052;-65
2023/09/21 10:39:24;;;;;;;0.20;0.20;;;;;;;22.46;55.28;96338.41;5075620;28;20109;-67
2023/09/21 10:41:54;;;;;;;0.40;0.40;;;;;;;22.49;55.02;96339.72;5072200;28;20268;-68
2023/09/21 10:45:03;;;;;;;0.30;0.30;;;;;;;22.59;55.00;96328.66;5059861;28;20072;-66
2023/09/21 10:47:38;;;;;;;0.25;0.25;;;;;;;22.66;54.70;96327.13;5072077;28;20045;-66
2023/09/21 10:50:11;;;;;;;0.30;0.30;;;;;;;22.74;55.08;96320.16;5072168;28;20492;-65
2023/09/21 10:52:41;;;;;;;0.20;0.20;;;;;;;22.79;54.59;96322.00;5064378;28;20033;-65
2023/09/21 10:55:11;;;;;;;0.20;0.20;;;;;;;22.86;54.15;96314.25;5071671;28;20048;-65
2023/09/21 10:57:40;;;;;;;0.30;0.30;;;;;;;22.93;54.23;96311.94;5064055;28;20406;-65
2023/09/21 11:00:15;;;;;;;0.55;0.55;;;;;;;23.07;54.05;96304.53;5070263;28;20090;-65
2023/09/21 11:02:46;;;;;;;0.30;0.30;;;;;;;23.24;53.59;96298.44;5060330;28;20045;-65
2023/09/21 11:05:19;;;;;;;0.20;0.20;;;;;;;23.36;53.06;96296.00;5053171;28;20045;-65
2023/09/21 11:07:50;;;;;;;0.00;0.00;;;;;;;23.51;53.03;96292.91;5061865;28;20462;-65
2023/09/21 11:10:19;;;;;;;0.20;0.20;;;;;;;23.63;52.52;96286.91;5068880;28;20106;-66
2023/09/21 11:12:48;;;;;;;0.30;0.30;;;;;;;23.67;52.76;96288.69;5072813;28;20049;-65
2023/09/21 11:15:17;;;;;;;0.40;0.40;;;;;;;23.85;52.05;96277.91;5056416;28;20040;-65
2023/09/21 11:17:46;;;;;;;0.30;0.30;;;;;;;23.96;51.77;96273.81;5074356;28;20037;-65
2023/09/21 11:20:19;;;;;;;0.35;0.35;;;;;;;24.00;51.83;96274.78;5069142;28;20055;-65
2023/09/21 11:22:50;;;;;;;0.20;0.20;;;;;;;24.07;51.16;96267.78;5064253;28;20045;-66
2023/09/21 11:25:20;;;;;;;0.38;0.38;;;;;;;24.21;51.41;96261.41;5067628;28;20440;-65
2023/09/21 11:27:50;;;;;;;0.43;0.43;;;;;;;24.30;50.37;96257.63;5062608;28;20112;-65
2023/09/21 11:30:18;;;;;;;0.22;0.22;;;;;;;24.38;50.81;96248.69;5072887;28;20075;-66
2023/09/21 11:32:48;;;;;;;0.30;0.30;;;;;;;24.61;49.74;96245.84;5075216;28;20123;-65
2023/09/21 11:35:18;;;;;;;0.10;0.10;;;;;;;24.85;48.89;96240.75;5074487;28;20060;-65
2023/09/21 11:37:47;;;;;;;0.20;0.20;;;;;;;24.98;47.31;96247.22;5076227;28;20040;-66
2023/09/21 11:40:15;;;;;;;0.30;0.30;;;;;;;24.93;46.50;96229.06;5074601;28;20064;-65
2023/09/21 11:42:44;;;;;;;0.20;0.20;;;;;;;25.02;47.02;96229.84;5073778;28;20040;-66
2023/09/21 11:45:16;;;;;;;0.15;0.15;;;;;;;25.12;47.40;96223.31;5073855;28;20085;-66